sensor_id;sensor_type;location;lat;lon;timestamp;temperature;humidity
1702;DHT22;848;48.354;10.064;2022-10-12T00:00:26;13.60;99.90
1702;DHT22;848;48.354;10.064;2022-10-12T00:02:52;13.60;99.90
1702;DHT22;848;48.354;10.064;2022-10-12T00:05:19;13.60;99.90
1702;DHT22;848;48.354;10.064;2022-10-12T00:08:19;13.70;99.90
1702;DHT22;848;48.354;10.064;2022-10-12T00:10:46;13.70;99.90
1702;DHT22;848;48.354;10.064;2022-10-12T00:13:13;13.60;99.90
1702;DHT22;848;48.354;10.064;2022-10-12T00:15:40;13.70;99.90
1702;DHT22;848;48.354;10.064;2022-10-12T00:18:07;13.60;99.90
1702;DHT22;848;48.354;10.064;2022-10-12T00:20:36;13.60;99.90
1702;DHT22;848;48.354;10.064;2022-10-12T00:23:03;13.60;99.90
1702;DHT22;848;48.354;10.064;2022-10-12T00:25:35;13.60;99.90
1702;DHT22;848;48.354;10.064;2022-10-12T00:28:02;13.60;99.90
1702;DHT22;848;48.354;10.064;2022-10-12T00:30:29;13.60;99.90
1702;DHT22;848;48.354;10.064;2022-10-12T00:32:56;13.60;99.90
1702;DHT22;848;48.354;10.064;2022-10-12T00:35:23;13.60;99.90
1702;DHT22;848;48.354;10.064;2022-10-12T00:37:52;13.60;99.90
1702;DHT22;848;48.354;10.064;2022-10-12T00:40:20;13.50;99.90
1702;DHT22;848;48.354;10.064;2022-10-12T00:42:48;13.50;99.90
1702;DHT22;848;48.354;10.064;2022-10-12T00:45:15;13.50;99.90
1702;DHT22;848;48.354;10.064;2022-10-12T00:47:47;13.40;99.90
1702;DHT22;848;48.354;10.064;2022-10-12T00:50:17;13.40;99.90
1702;DHT22;848;48.354;10.064;2022-10-12T00:52:51;13.40;99.90
1702;DHT22;848;48.354;10.064;2022-10-12T00:55:20;13.30;99.90
1702;DHT22;848;48.354;10.064;2022-10-12T00:57:50;13.20;99.90
1702;DHT22;848;48.354;10.064;2022-10-12T01:00:19;13.20;99.90
1702;DHT22;848;48.354;10.064;2022-10-12T01:02:47;13.20;99.90
1702;DHT22;848;48.354;10.064;2022-10-12T01:05:14;13.20;99.90
1702;DHT22;848;48.354;10.064;2022-10-12T01:07:42;13.10;99.90
1702;DHT22;848;48.354;10.064;2022-10-12T01:10:09;13.10;99.90
1702;DHT22;848;48.354;10.064;2022-10-12T01:12:37;13.10;99.90
1702;DHT22;848;48.354;10.064;2022-10-12T01:15:07;13.00;99.90
1702;DHT22;848;48.354;10.064;2022-10-12T01:17:40;13.00;99.90
1702;DHT22;848;48.354;10.064;2022-10-12T01:20:33;13.00;99.90
1702;DHT22;848;48.354;10.064;2022-10-12T01:23:27;12.90;99.90
1702;DHT22;848;48.354;10.064;2022-10-12T01:28:57;12.90;99.90
1702;DHT22;848;48.354;10.064;2022-10-12T01:31:35;12.80;99.90
1702;DHT22;848;48.354;10.064;2022-10-12T01:34:10;12.90;99.90
1702;DHT22;848;48.354;10.064;2022-10-12T01:36:43;12.90;99.90
1702;DHT22;848;48.354;10.064;2022-10-12T01:39:15;12.80;99.90
1702;DHT22;848;48.354;10.064;2022-10-12T01:41:49;12.80;99.90
1702;DHT22;848;48.354;10.064;2022-10-12T01:44:20;12.80;99.90
1702;DHT22;848;48.354;10.064;2022-10-12T01:46:49;12.80;99.90
1702;DHT22;848;48.354;10.064;2022-10-12T01:49:22;12.90;99.90
1702;DHT22;848;48.354;10.064;2022-10-12T01:52:20;12.90;99.90
1702;DHT22;848;48.354;10.064;2022-10-12T01:55:09;12.90;99.90
1702;DHT22;848;48.354;10.064;2022-10-12T01:57:49;13.00;99.90
1702;DHT22;848;48.354;10.064;2022-10-12T02:00:19;12.90;99.90
1702;DHT22;848;48.354;10.064;2022-10-12T02:02:54;13.00;99.90
1702;DHT22;848;48.354;10.064;2022-10-12T02:05:35;13.00;99.90
1702;DHT22;848;48.354;10.064;2022-10-12T02:08:08;13.00;99.90
1702;DHT22;848;48.354;10.064;2022-10-12T02:10:39;13.00;99.90
1702;DHT22;848;48.354;10.064;2022-10-12T02:13:09;13.00;99.90
1702;DHT22;848;48.354;10.064;2022-10-12T02:15:39;13.10;99.90
1702;DHT22;848;48.354;10.064;2022-10-12T02:18:11;13.10;99.90
1702;DHT22;848;48.354;10.064;2022-10-12T02:20:41;13.10;99.90
1702;DHT22;848;48.354;10.064;2022-10-12T02:23:10;13.10;99.90
1702;DHT22;848;48.354;10.064;2022-10-12T02:25:38;13.10;99.90
1702;DHT22;848;48.354;10.064;2022-10-12T02:28:09;13.10;99.90
1702;DHT22;848;48.354;10.064;2022-10-12T02:30:41;13.20;99.90
1702;DHT22;848;48.354;10.064;2022-10-12T02:33:13;13.20;99.90
1702;DHT22;848;48.354;10.064;2022-10-12T02:35:45;13.20;99.90
1702;DHT22;848;48.354;10.064;2022-10-12T02:38:20;13.20;99.90
1702;DHT22;848;48.354;10.064;2022-10-12T02:40:51;13.20;99.90
1702;DHT22;848;48.354;10.064;2022-10-12T02:43:22;13.20;99.90
1702;DHT22;848;48.354;10.064;2022-10-12T02:45:52;13.30;99.90
1702;DHT22;848;48.354;10.064;2022-10-12T02:48:23;13.20;99.90
1702;DHT22;848;48.354;10.064;2022-10-12T02:50:53;13.30;99.90
1702;DHT22;848;48.354;10.064;2022-10-12T02:53:22;13.30;99.90
1702;DHT22;848;48.354;10.064;2022-10-12T02:55:51;13.30;99.90
1702;DHT22;848;48.354;10.064;2022-10-12T02:58:19;13.30;99.90
1702;DHT22;848;48.354;10.064;2022-10-12T03:00:46;13.30;99.90
1702;DHT22;848;48.354;10.064;2022-10-12T03:03:13;13.30;99.90
1702;DHT22;848;48.354;10.064;2022-10-12T03:05:41;13.30;99.90
1702;DHT22;848;48.354;10.064;2022-10-12T03:08:08;13.30;99.90
1702;DHT22;848;48.354;10.064;2022-10-12T03:10:35;13.30;99.90
1702;DHT22;848;48.354;10.064;2022-10-12T03:13:02;13.30;99.90
1702;DHT22;848;48.354;10.064;2022-10-12T03:15:29;13.30;99.90
1702;DHT22;848;48.354;10.064;2022-10-12T03:17:56;13.30;99.90
1702;DHT22;848;48.354;10.064;2022-10-12T03:20:23;13.30;99.90
1702;DHT22;848;48.354;10.064;2022-10-12T03:22:52;13.30;99.90
1702;DHT22;848;48.354;10.064;2022-10-12T03:25:21;13.40;99.90
1702;DHT22;848;48.354;10.064;2022-10-12T03:27:48;13.40;99.90
1702;DHT22;848;48.354;10.064;2022-10-12T03:30:15;13.40;99.90
1702;DHT22;848;48.354;10.064;2022-10-12T03:32:42;13.40;99.90
1702;DHT22;848;48.354;10.064;2022-10-12T03:35:09;13.40;99.90
1702;DHT22;848;48.354;10.064;2022-10-12T03:37:36;13.50;99.90
1702;DHT22;848;48.354;10.064;2022-10-12T03:40:05;13.40;99.90
1702;DHT22;848;48.354;10.064;2022-10-12T03:42:32;13.50;99.90
1702;DHT22;848;48.354;10.064;2022-10-12T03:44:59;13.50;99.90
1702;DHT22;848;48.354;10.064;2022-10-12T03:47:26;13.50;99.90
1702;DHT22;848;48.354;10.064;2022-10-12T03:49:53;13.50;99.90
1702;DHT22;848;48.354;10.064;2022-10-12T03:52:19;13.50;99.90
1702;DHT22;848;48.354;10.064;2022-10-12T03:54:46;13.50;99.90
1702;DHT22;848;48.354;10.064;2022-10-12T03:57:18;13.50;99.90
1702;DHT22;848;48.354;10.064;2022-10-12T03:59:45;13.50;99.90
1702;DHT22;848;48.354;10.064;2022-10-12T04:02:11;13.50;99.90
1702;DHT22;848;48.354;10.064;2022-10-12T04:04:38;13.50;99.90
1702;DHT22;848;48.354;10.064;2022-10-12T04:07:06;13.50;99.90
1702;DHT22;848;48.354;10.064;2022-10-12T04:09:33;13.50;99.90
1702;DHT22;848;48.354;10.064;2022-10-12T04:11:59;13.50;99.90
1702;DHT22;848;48.354;10.064;2022-10-12T04:14:28;13.50;99.90
1702;DHT22;848;48.354;10.064;2022-10-12T04:16:55;13.50;99.90
1702;DHT22;848;48.354;10.064;2022-10-12T04:19:22;13.40;99.90
1702;DHT22;848;48.354;10.064;2022-10-12T04:21:48;13.40;99.90
1702;DHT22;848;48.354;10.064;2022-10-12T04:24:15;13.40;99.90
1702;DHT22;848;48.354;10.064;2022-10-12T04:26:42;13.40;99.90
1702;DHT22;848;48.354;10.064;2022-10-12T04:29:10;13.40;99.90
1702;DHT22;848;48.354;10.064;2022-10-12T04:31:39;13.50;99.90
1702;DHT22;848;48.354;10.064;2022-10-12T04:34:07;13.50;99.90
1702;DHT22;848;48.354;10.064;2022-10-12T04:36:34;13.50;99.90
1702;DHT22;848;48.354;10.064;2022-10-12T04:39:01;13.50;99.90
1702;DHT22;848;48.354;10.064;2022-10-12T04:41:28;13.50;99.90
1702;DHT22;848;48.354;10.064;2022-10-12T04:43:55;13.50;99.90
1702;DHT22;848;48.354;10.064;2022-10-12T04:46:22;13.50;99.90
1702;DHT22;848;48.354;10.064;2022-10-12T04:48:50;13.50;99.90
1702;DHT22;848;48.354;10.064;2022-10-12T04:51:17;13.50;99.90
1702;DHT22;848;48.354;10.064;2022-10-12T04:53:44;13.60;99.90
1702;DHT22;848;48.354;10.064;2022-10-12T04:56:11;13.50;99.90
1702;DHT22;848;48.354;10.064;2022-10-12T04:58:37;13.60;99.90
1702;DHT22;848;48.354;10.064;2022-10-12T05:01:04;13.60;99.90
1702;DHT22;848;48.354;10.064;2022-10-12T05:03:31;13.60;99.90
1702;DHT22;848;48.354;10.064;2022-10-12T05:06:00;13.60;99.90
1702;DHT22;848;48.354;10.064;2022-10-12T05:08:27;13.60;99.90
1702;DHT22;848;48.354;10.064;2022-10-12T05:10:53;13.50;99.90
1702;DHT22;848;48.354;10.064;2022-10-12T05:13:22;13.50;99.90
1702;DHT22;848;48.354;10.064;2022-10-12T05:15:49;13.40;99.90
1702;DHT22;848;48.354;10.064;2022-10-12T05:18:16;13.40;99.90
1702;DHT22;848;48.354;10.064;2022-10-12T05:20:43;13.40;99.90
1702;DHT22;848;48.354;10.064;2022-10-12T05:23:11;13.40;99.90
1702;DHT22;848;48.354;10.064;2022-10-12T05:25:38;13.40;99.90
1702;DHT22;848;48.354;10.064;2022-10-12T05:28:05;13.50;99.90
1702;DHT22;848;48.354;10.064;2022-10-12T05:30:32;13.40;99.90
1702;DHT22;848;48.354;10.064;2022-10-12T05:32:59;13.40;99.90
1702;DHT22;848;48.354;10.064;2022-10-12T05:35:26;13.40;99.90
1702;DHT22;848;48.354;10.064;2022-10-12T05:37:53;13.40;99.90
1702;DHT22;848;48.354;10.064;2022-10-12T05:40:21;13.40;99.90
1702;DHT22;848;48.354;10.064;2022-10-12T05:42:48;13.40;99.90
1702;DHT22;848;48.354;10.064;2022-10-12T05:45:16;13.40;99.90
1702;DHT22;848;48.354;10.064;2022-10-12T05:47:42;13.30;99.90
1702;DHT22;848;48.354;10.064;2022-10-12T05:50:09;13.30;99.90
1702;DHT22;848;48.354;10.064;2022-10-12T05:52:36;13.30;99.90
1702;DHT22;848;48.354;10.064;2022-10-12T05:55:04;13.30;99.90
1702;DHT22;848;48.354;10.064;2022-10-12T05:57:32;13.40;99.90
1702;DHT22;848;48.354;10.064;2022-10-12T05:59:59;13.40;99.90
1702;DHT22;848;48.354;10.064;2022-10-12T06:02:26;13.40;99.90
1702;DHT22;848;48.354;10.064;2022-10-12T06:04:53;13.40;99.90
1702;DHT22;848;48.354;10.064;2022-10-12T06:07:20;13.40;99.90
1702;DHT22;848;48.354;10.064;2022-10-12T06:09:49;13.40;99.90
1702;DHT22;848;48.354;10.064;2022-10-12T06:12:16;13.30;99.90
1702;DHT22;848;48.354;10.064;2022-10-12T06:14:44;13.20;99.90
1702;DHT22;848;48.354;10.064;2022-10-12T06:17:11;13.30;99.90
1702;DHT22;848;48.354;10.064;2022-10-12T06:19:38;13.30;99.90
1702;DHT22;848;48.354;10.064;2022-10-12T06:22:06;13.30;99.90
1702;DHT22;848;48.354;10.064;2022-10-12T06:24:33;13.30;99.90
1702;DHT22;848;48.354;10.064;2022-10-12T06:27:00;13.30;99.90
1702;DHT22;848;48.354;10.064;2022-10-12T06:29:27;13.20;99.90
1702;DHT22;848;48.354;10.064;2022-10-12T06:31:55;13.20;99.90
1702;DHT22;848;48.354;10.064;2022-10-12T06:34:22;13.20;99.90
1702;DHT22;848;48.354;10.064;2022-10-12T06:36:49;13.20;99.90
1702;DHT22;848;48.354;10.064;2022-10-12T06:39:17;13.20;99.90
1702;DHT22;848;48.354;10.064;2022-10-12T06:41:44;13.20;99.90
1702;DHT22;848;48.354;10.064;2022-10-12T06:44:11;13.10;99.90
1702;DHT22;848;48.354;10.064;2022-10-12T06:46:38;13.10;99.90
1702;DHT22;848;48.354;10.064;2022-10-12T06:49:06;13.10;99.90
1702;DHT22;848;48.354;10.064;2022-10-12T06:51:33;13.10;99.90
1702;DHT22;848;48.354;10.064;2022-10-12T06:54:00;13.10;99.90
1702;DHT22;848;48.354;10.064;2022-10-12T06:56:27;13.10;99.90
1702;DHT22;848;48.354;10.064;2022-10-12T06:58:57;13.20;99.90
1702;DHT22;848;48.354;10.064;2022-10-12T07:01:24;13.20;99.90
1702;DHT22;848;48.354;10.064;2022-10-12T07:03:51;13.30;99.90
1702;DHT22;848;48.354;10.064;2022-10-12T07:06:19;13.30;99.90
1702;DHT22;848;48.354;10.064;2022-10-12T07:08:46;13.20;99.90
1702;DHT22;848;48.354;10.064;2022-10-12T07:11:13;13.10;99.90
1702;DHT22;848;48.354;10.064;2022-10-12T07:13:40;13.20;99.90
1702;DHT22;848;48.354;10.064;2022-10-12T07:16:07;13.30;99.90
1702;DHT22;848;48.354;10.064;2022-10-12T07:18:34;13.40;99.90
1702;DHT22;848;48.354;10.064;2022-10-12T07:21:01;13.40;99.90
1702;DHT22;848;48.354;10.064;2022-10-12T07:23:33;13.40;99.90
1702;DHT22;848;48.354;10.064;2022-10-12T07:26:02;13.40;99.90
1702;DHT22;848;48.354;10.064;2022-10-12T07:28:29;13.50;99.90
1702;DHT22;848;48.354;10.064;2022-10-12T07:30:59;13.50;99.90
1702;DHT22;848;48.354;10.064;2022-10-12T07:33:30;13.50;99.90
1702;DHT22;848;48.354;10.064;2022-10-12T07:35:57;13.50;99.90
1702;DHT22;848;48.354;10.064;2022-10-12T07:38:24;13.50;99.90
1702;DHT22;848;48.354;10.064;2022-10-12T07:40:53;13.60;99.90
1702;DHT22;848;48.354;10.064;2022-10-12T07:43:20;13.60;99.90
1702;DHT22;848;48.354;10.064;2022-10-12T07:45:46;13.60;99.90
1702;DHT22;848;48.354;10.064;2022-10-12T07:48:13;13.70;99.90
1702;DHT22;848;48.354;10.064;2022-10-12T07:50:40;13.70;99.90
1702;DHT22;848;48.354;10.064;2022-10-12T07:53:07;13.80;99.90
1702;DHT22;848;48.354;10.064;2022-10-12T07:55:34;13.80;99.90
1702;DHT22;848;48.354;10.064;2022-10-12T07:58:03;13.80;99.90
1702;DHT22;848;48.354;10.064;2022-10-12T08:00:30;13.90;99.90
1702;DHT22;848;48.354;10.064;2022-10-12T08:02:57;13.90;99.90
1702;DHT22;848;48.354;10.064;2022-10-12T08:05:25;13.90;99.90
1702;DHT22;848;48.354;10.064;2022-10-12T08:07:52;14.00;99.90
1702;DHT22;848;48.354;10.064;2022-10-12T08:10:20;14.00;99.90
1702;DHT22;848;48.354;10.064;2022-10-12T08:12:47;14.00;99.90
1702;DHT22;848;48.354;10.064;2022-10-12T08:15:16;14.10;99.90
1702;DHT22;848;48.354;10.064;2022-10-12T08:17:42;14.20;99.90
1702;DHT22;848;48.354;10.064;2022-10-12T08:20:10;14.10;99.90
1702;DHT22;848;48.354;10.064;2022-10-12T08:22:37;14.00;99.90
1702;DHT22;848;48.354;10.064;2022-10-12T08:25:04;14.00;99.90
1702;DHT22;848;48.354;10.064;2022-10-12T08:27:31;14.00;99.90
1702;DHT22;848;48.354;10.064;2022-10-12T08:29:58;13.90;99.90
1702;DHT22;848;48.354;10.064;2022-10-12T08:32:27;13.90;99.90
1702;DHT22;848;48.354;10.064;2022-10-12T08:34:53;13.90;99.90
1702;DHT22;848;48.354;10.064;2022-10-12T08:37:20;13.90;99.90
1702;DHT22;848;48.354;10.064;2022-10-12T08:39:47;14.00;99.90
1702;DHT22;848;48.354;10.064;2022-10-12T08:42:24;14.10;99.90
1702;DHT22;848;48.354;10.064;2022-10-12T08:45:04;14.10;99.90
1702;DHT22;848;48.354;10.064;2022-10-12T08:47:37;14.10;99.90
1702;DHT22;848;48.354;10.064;2022-10-12T08:50:08;14.10;99.90
1702;DHT22;848;48.354;10.064;2022-10-12T08:52:45;14.20;99.90
1702;DHT22;848;48.354;10.064;2022-10-12T08:55:24;14.20;99.90
1702;DHT22;848;48.354;10.064;2022-10-12T08:57:54;14.20;99.90
1702;DHT22;848;48.354;10.064;2022-10-12T09:00:21;14.30;99.90
1702;DHT22;848;48.354;10.064;2022-10-12T09:02:55;14.30;99.90
1702;DHT22;848;48.354;10.064;2022-10-12T09:05:31;14.30;99.90
1702;DHT22;848;48.354;10.064;2022-10-12T09:08:03;14.30;99.90
1702;DHT22;848;48.354;10.064;2022-10-12T09:10:42;14.40;99.90
1702;DHT22;848;48.354;10.064;2022-10-12T09:13:18;14.40;99.90
1702;DHT22;848;48.354;10.064;2022-10-12T09:15:50;14.40;99.90
1702;DHT22;848;48.354;10.064;2022-10-12T09:18:28;14.50;99.90
1702;DHT22;848;48.354;10.064;2022-10-12T09:20:58;14.50;99.90
1702;DHT22;848;48.354;10.064;2022-10-12T09:23:29;14.60;99.90
1702;DHT22;848;48.354;10.064;2022-10-12T09:26:02;14.50;99.90
1702;DHT22;848;48.354;10.064;2022-10-12T09:28:35;14.50;99.90
1702;DHT22;848;48.354;10.064;2022-10-12T09:31:10;14.60;99.90
1702;DHT22;848;48.354;10.064;2022-10-12T09:33:42;14.60;99.90
1702;DHT22;848;48.354;10.064;2022-10-12T09:36:20;14.60;99.90
1702;DHT22;848;48.354;10.064;2022-10-12T09:38:48;14.60;99.90
1702;DHT22;848;48.354;10.064;2022-10-12T09:41:20;14.60;99.90
1702;DHT22;848;48.354;10.064;2022-10-12T09:43:49;14.70;99.90
1702;DHT22;848;48.354;10.064;2022-10-12T09:46:20;14.70;99.90
1702;DHT22;848;48.354;10.064;2022-10-12T09:48:57;14.90;99.90
1702;DHT22;848;48.354;10.064;2022-10-12T09:51:24;14.90;99.90
1702;DHT22;848;48.354;10.064;2022-10-12T09:53:51;14.90;99.90
1702;DHT22;848;48.354;10.064;2022-10-12T09:56:23;15.00;99.90
1702;DHT22;848;48.354;10.064;2022-10-12T09:58:53;15.10;99.90
1702;DHT22;848;48.354;10.064;2022-10-12T10:01:25;15.10;99.90
1702;DHT22;848;48.354;10.064;2022-10-12T10:04:13;15.20;99.90
1702;DHT22;848;48.354;10.064;2022-10-12T10:06:44;15.30;99.90
1702;DHT22;848;48.354;10.064;2022-10-12T10:09:29;15.20;99.90
1702;DHT22;848;48.354;10.064;2022-10-12T10:11:56;15.20;99.90
1702;DHT22;848;48.354;10.064;2022-10-12T10:14:24;15.30;99.90
1702;DHT22;848;48.354;10.064;2022-10-12T10:16:51;15.40;99.90
1702;DHT22;848;48.354;10.064;2022-10-12T10:19:22;15.40;99.90
1702;DHT22;848;48.354;10.064;2022-10-12T10:21:52;15.40;99.90
1702;DHT22;848;48.354;10.064;2022-10-12T10:24:25;15.40;99.90
1702;DHT22;848;48.354;10.064;2022-10-12T10:26:55;15.30;99.90
1702;DHT22;848;48.354;10.064;2022-10-12T10:29:37;15.20;99.90
1702;DHT22;848;48.354;10.064;2022-10-12T10:32:16;15.30;99.90
1702;DHT22;848;48.354;10.064;2022-10-12T10:35:02;15.30;99.90
1702;DHT22;848;48.354;10.064;2022-10-12T10:37:30;15.30;99.90
1702;DHT22;848;48.354;10.064;2022-10-12T10:39:57;15.30;99.90
1702;DHT22;848;48.354;10.064;2022-10-12T10:42:26;15.30;99.90
1702;DHT22;848;48.354;10.064;2022-10-12T10:44:59;15.30;99.90
1702;DHT22;848;48.354;10.064;2022-10-12T10:47:28;15.30;99.90
1702;DHT22;848;48.354;10.064;2022-10-12T10:49:57;15.30;99.90
1702;DHT22;848;48.354;10.064;2022-10-12T10:52:28;15.40;99.90
1702;DHT22;848;48.354;10.064;2022-10-12T10:55:19;15.40;99.90
1702;DHT22;848;48.354;10.064;2022-10-12T10:57:53;15.40;99.90
1702;DHT22;848;48.354;10.064;2022-10-12T11:00:22;15.40;99.90
1702;DHT22;848;48.354;10.064;2022-10-12T11:02:51;15.40;99.90
1702;DHT22;848;48.354;10.064;2022-10-12T11:05:23;15.70;99.90
1702;DHT22;848;48.354;10.064;2022-10-12T11:07:54;15.50;99.90
1702;DHT22;848;48.354;10.064;2022-10-12T11:10:26;15.50;99.90
1702;DHT22;848;48.354;10.064;2022-10-12T11:12:59;15.50;99.90
1702;DHT22;848;48.354;10.064;2022-10-12T11:15:32;15.60;99.90
1702;DHT22;848;48.354;10.064;2022-10-12T11:18:06;15.60;99.90
1702;DHT22;848;48.354;10.064;2022-10-12T11:20:42;15.70;99.90
1702;DHT22;848;48.354;10.064;2022-10-12T11:23:21;15.70;99.90
1702;DHT22;848;48.354;10.064;2022-10-12T11:25:58;15.70;99.90
1702;DHT22;848;48.354;10.064;2022-10-12T11:28:28;15.70;99.90
1702;DHT22;848;48.354;10.064;2022-10-12T11:30:56;15.70;99.90
1702;DHT22;848;48.354;10.064;2022-10-12T11:33:26;15.70;99.90
1702;DHT22;848;48.354;10.064;2022-10-12T11:35:55;15.70;99.90
1702;DHT22;848;48.354;10.064;2022-10-12T11:38:28;15.70;99.90
1702;DHT22;848;48.354;10.064;2022-10-12T11:41:00;15.70;99.90
1702;DHT22;848;48.354;10.064;2022-10-12T11:43:32;15.80;99.90
1702;DHT22;848;48.354;10.064;2022-10-12T11:46:02;15.80;99.90
1702;DHT22;848;48.354;10.064;2022-10-12T11:48:35;15.70;99.90
1702;DHT22;848;48.354;10.064;2022-10-12T11:51:04;15.80;99.90
1702;DHT22;848;48.354;10.064;2022-10-12T11:53:37;15.80;99.90
1702;DHT22;848;48.354;10.064;2022-10-12T11:56:10;15.60;99.90
1702;DHT22;848;48.354;10.064;2022-10-12T11:58:42;15.60;99.90
1702;DHT22;848;48.354;10.064;2022-10-12T12:01:32;15.70;99.90
1702;DHT22;848;48.354;10.064;2022-10-12T12:04:21;15.70;99.90
1702;DHT22;848;48.354;10.064;2022-10-12T12:06:57;15.70;99.90
1702;DHT22;848;48.354;10.064;2022-10-12T12:09:40;15.70;99.90
1702;DHT22;848;48.354;10.064;2022-10-12T12:12:10;15.70;99.90
1702;DHT22;848;48.354;10.064;2022-10-12T12:14:46;15.80;99.90
1702;DHT22;848;48.354;10.064;2022-10-12T12:19:47;15.90;99.90
1702;DHT22;848;48.354;10.064;2022-10-12T12:22:29;15.80;99.90
1702;DHT22;848;48.354;10.064;2022-10-12T12:25:04;15.90;99.90
1702;DHT22;848;48.354;10.064;2022-10-12T12:33:24;15.90;99.90
1702;DHT22;848;48.354;10.064;2022-10-12T12:35:54;15.90;99.90
1702;DHT22;848;48.354;10.064;2022-10-12T12:38:27;16.00;99.90
1702;DHT22;848;48.354;10.064;2022-10-12T12:41:05;16.00;99.90
1702;DHT22;848;48.354;10.064;2022-10-12T12:43:51;16.00;99.90
1702;DHT22;848;48.354;10.064;2022-10-12T12:46:19;16.00;99.90
1702;DHT22;848;48.354;10.064;2022-10-12T12:48:58;16.00;99.90
1702;DHT22;848;48.354;10.064;2022-10-12T12:51:37;16.10;99.90
1702;DHT22;848;48.354;10.064;2022-10-12T12:54:11;16.00;99.90
1702;DHT22;848;48.354;10.064;2022-10-12T13:02:21;15.90;99.90
1702;DHT22;848;48.354;10.064;2022-10-12T13:05:21;15.90;99.90
1702;DHT22;848;48.354;10.064;2022-10-12T13:08:08;15.90;99.90
1702;DHT22;848;48.354;10.064;2022-10-12T13:10:49;15.80;99.90
1702;DHT22;848;48.354;10.064;2022-10-12T13:13:32;15.80;99.90
1702;DHT22;848;48.354;10.064;2022-10-12T13:16:10;15.80;99.90
1702;DHT22;848;48.354;10.064;2022-10-12T13:18:48;15.90;99.90
1702;DHT22;848;48.354;10.064;2022-10-12T13:21:21;16.00;99.90
1702;DHT22;848;48.354;10.064;2022-10-12T13:23:51;15.90;99.90
1702;DHT22;848;48.354;10.064;2022-10-12T13:26:22;16.00;99.90
1702;DHT22;848;48.354;10.064;2022-10-12T13:28:51;16.00;99.90
1702;DHT22;848;48.354;10.064;2022-10-12T13:31:24;16.10;99.90
1702;DHT22;848;48.354;10.064;2022-10-12T13:33:57;16.10;99.90
1702;DHT22;848;48.354;10.064;2022-10-12T13:36:30;16.10;99.90
1702;DHT22;848;48.354;10.064;2022-10-12T13:38:59;16.20;99.90
1702;DHT22;848;48.354;10.064;2022-10-12T13:41:33;16.20;99.90
1702;DHT22;848;48.354;10.064;2022-10-12T13:44:03;16.20;99.90
1702;DHT22;848;48.354;10.064;2022-10-12T13:46:36;16.10;99.90
1702;DHT22;848;48.354;10.064;2022-10-12T13:49:12;16.10;99.90
1702;DHT22;848;48.354;10.064;2022-10-12T13:51:42;16.10;99.90
1702;DHT22;848;48.354;10.064;2022-10-12T13:54:14;16.10;99.90
1702;DHT22;848;48.354;10.064;2022-10-12T13:56:42;16.10;99.90
1702;DHT22;848;48.354;10.064;2022-10-12T13:59:14;16.10;99.90
1702;DHT22;848;48.354;10.064;2022-10-12T14:01:51;16.10;99.90
1702;DHT22;848;48.354;10.064;2022-10-12T14:04:18;16.10;99.90
1702;DHT22;848;48.354;10.064;2022-10-12T14:06:52;16.10;99.90
1702;DHT22;848;48.354;10.064;2022-10-12T14:09:22;16.10;99.90
1702;DHT22;848;48.354;10.064;2022-10-12T14:11:50;16.10;99.90
1702;DHT22;848;48.354;10.064;2022-10-12T14:14:26;16.10;99.90
1702;DHT22;848;48.354;10.064;2022-10-12T14:16:54;16.10;99.90
1702;DHT22;848;48.354;10.064;2022-10-12T14:19:40;16.00;99.90
1702;DHT22;848;48.354;10.064;2022-10-12T14:22:09;15.90;99.90
1702;DHT22;848;48.354;10.064;2022-10-12T14:24:36;16.00;99.90
1702;DHT22;848;48.354;10.064;2022-10-12T14:27:05;15.90;99.90
1702;DHT22;848;48.354;10.064;2022-10-12T14:29:36;16.00;99.90
1702;DHT22;848;48.354;10.064;2022-10-12T14:32:24;16.00;99.90
1702;DHT22;848;48.354;10.064;2022-10-12T14:35:08;16.00;99.90
1702;DHT22;848;48.354;10.064;2022-10-12T14:37:37;16.00;99.90
1702;DHT22;848;48.354;10.064;2022-10-12T14:40:30;16.10;99.90
1702;DHT22;848;48.354;10.064;2022-10-12T14:42:58;16.00;99.90
1702;DHT22;848;48.354;10.064;2022-10-12T14:45:26;15.90;99.90
1702;DHT22;848;48.354;10.064;2022-10-12T14:47:53;15.80;99.90
1702;DHT22;848;48.354;10.064;2022-10-12T14:50:20;15.80;99.90
1702;DHT22;848;48.354;10.064;2022-10-12T14:52:50;15.80;99.90
1702;DHT22;848;48.354;10.064;2022-10-12T14:55:20;15.80;99.90
1702;DHT22;848;48.354;10.064;2022-10-12T14:57:48;15.70;99.90
1702;DHT22;848;48.354;10.064;2022-10-12T15:00:16;15.70;99.90
1702;DHT22;848;48.354;10.064;2022-10-12T15:02:44;15.70;99.90
1702;DHT22;848;48.354;10.064;2022-10-12T15:05:13;15.70;99.90
1702;DHT22;848;48.354;10.064;2022-10-12T15:07:41;15.60;99.90
1702;DHT22;848;48.354;10.064;2022-10-12T15:10:09;15.60;99.90
1702;DHT22;848;48.354;10.064;2022-10-12T15:12:36;15.60;99.90
1702;DHT22;848;48.354;10.064;2022-10-12T15:15:16;15.60;99.90
1702;DHT22;848;48.354;10.064;2022-10-12T15:17:49;15.60;99.90
1702;DHT22;848;48.354;10.064;2022-10-12T15:20:16;15.70;99.90
1702;DHT22;848;48.354;10.064;2022-10-12T15:22:44;15.60;99.90
1702;DHT22;848;48.354;10.064;2022-10-12T15:25:17;15.70;99.90
1702;DHT22;848;48.354;10.064;2022-10-12T15:27:45;15.60;99.90
1702;DHT22;848;48.354;10.064;2022-10-12T15:30:13;15.70;99.90
1702;DHT22;848;48.354;10.064;2022-10-12T15:32:40;15.70;99.90
1702;DHT22;848;48.354;10.064;2022-10-12T15:35:16;15.60;99.90
1702;DHT22;848;48.354;10.064;2022-10-12T15:37:44;15.60;99.90
1702;DHT22;848;48.354;10.064;2022-10-12T15:40:13;15.60;99.90
1702;DHT22;848;48.354;10.064;2022-10-12T15:42:42;15.60;99.90
1702;DHT22;848;48.354;10.064;2022-10-12T15:45:22;15.50;99.90
1702;DHT22;848;48.354;10.064;2022-10-12T15:47:53;15.50;99.90
1702;DHT22;848;48.354;10.064;2022-10-12T15:50:21;15.50;99.90
1702;DHT22;848;48.354;10.064;2022-10-12T15:52:49;15.50;99.90
1702;DHT22;848;48.354;10.064;2022-10-12T15:55:19;15.50;99.90
1702;DHT22;848;48.354;10.064;2022-10-12T15:57:47;15.50;99.90
1702;DHT22;848;48.354;10.064;2022-10-12T16:00:16;15.50;99.90
1702;DHT22;848;48.354;10.064;2022-10-12T16:02:43;15.50;99.90
1702;DHT22;848;48.354;10.064;2022-10-12T16:05:17;15.50;99.90
1702;DHT22;848;48.354;10.064;2022-10-12T16:07:44;15.50;99.90
1702;DHT22;848;48.354;10.064;2022-10-12T16:10:11;15.50;99.90
1702;DHT22;848;48.354;10.064;2022-10-12T16:12:42;15.50;99.90
1702;DHT22;848;48.354;10.064;2022-10-12T16:15:11;15.50;99.90
1702;DHT22;848;48.354;10.064;2022-10-12T16:17:38;15.50;99.90
1702;DHT22;848;48.354;10.064;2022-10-12T16:20:07;15.50;99.90
1702;DHT22;848;48.354;10.064;2022-10-12T16:22:35;15.50;99.90
1702;DHT22;848;48.354;10.064;2022-10-12T16:25:06;15.50;99.90
1702;DHT22;848;48.354;10.064;2022-10-12T16:27:33;15.40;99.90
1702;DHT22;848;48.354;10.064;2022-10-12T16:30:02;15.40;99.90
1702;DHT22;848;48.354;10.064;2022-10-12T16:32:29;15.30;99.90
1702;DHT22;848;48.354;10.064;2022-10-12T16:34:56;15.30;99.90
1702;DHT22;848;48.354;10.064;2022-10-12T16:37:23;15.30;99.90
1702;DHT22;848;48.354;10.064;2022-10-12T16:39:51;15.20;99.90